Time;durP1;ratioP1;P1;durP2;ratioP2;P2;SDS_P1;SDS_P2;PMS_P1;PMS_P2;Temp;Humidity;BMP_temperature;BMP_pressure;BME280_temperature;BME280_humidity;BME280_pressure;Samples;Min_cycle;Max_cycle;Signal;HPM_P1;HPM_P2
2022/05/13 00:02:15;;;;;;;2.13;1.30;;;10.10;99.90;11.50;97154.00;;;;4983418;28;82592;-59
2022/05/13 00:04:41;;;;;;;2.45;1.20;;;10.10;99.90;11.80;97152.00;;;;4985628;28;82216;-60
2022/05/13 00:07:08;;;;;;;2.97;1.00;;;10.10;99.90;11.80;97153.00;;;;4984656;28;82703;-60
2022/05/13 00:12:19;;;;;;;1.95;0.80;;;10.20;99.90;11.60;97163.00;;;;4982879;28;82553;-60
2022/05/13 00:14:46;;;;;;;3.58;1.08;;;10.20;99.90;11.70;97151.00;;;;4985278;28;81910;-59
2022/05/13 00:17:12;;;;;;;2.17;1.00;;;10.20;99.90;11.70;97165.00;;;;4968561;28;82562;-59
2022/05/13 00:19:39;;;;;;;5.05;1.00;;;10.20;99.90;11.80;97157.00;;;;4985834;28;82246;-58
2022/05/13 00:22:05;;;;;;;2.40;0.88;;;10.20;99.90;11.80;97152.00;;;;4985598;28;81934;-59
2022/05/13 00:24:31;;;;;;;2.60;1.10;;;10.20;99.90;11.50;97149.00;;;;4984823;28;83361;-59
2022/05/13 00:26:58;;;;;;;3.03;1.08;;;10.20;99.90;11.60;97158.00;;;;4985799;28;81749;-58
2022/05/13 00:29:24;;;;;;;1.67;0.90;;;10.20;99.90;11.50;97148.00;;;;4985317;28;82672;-59
2022/05/13 00:31:50;;;;;;;3.90;1.23;;;10.20;99.90;11.70;97167.00;;;;4985525;28;81929;-59
2022/05/13 00:34:16;;;;;;;2.70;1.15;;;10.20;99.90;11.70;97166.00;;;;4984069;28;83726;-58
2022/05/13 00:36:42;;;;;;;1.38;0.90;;;10.20;99.90;11.70;97152.00;;;;4985125;28;83699;-59
2022/05/13 00:39:09;;;;;;;2.67;0.80;;;10.20;99.90;11.70;97162.00;;;;4985445;28;82381;-59
2022/05/13 00:41:36;;;;;;;2.05;0.88;;;10.20;99.90;11.60;97153.00;;;;4986082;28;81860;-59
2022/05/13 00:44:03;;;;;;;2.10;0.98;;;10.20;99.90;11.70;97150.00;;;;4983797;28;83333;-59
2022/05/13 00:46:29;;;;;;;2.70;0.85;;;10.20;99.90;11.70;97161.00;;;;4985850;28;82425;-59
2022/05/13 00:48:59;;;;;;;2.65;0.77;;;10.30;99.90;11.80;97161.00;;;;4984369;28;82341;-59
2022/05/13 00:51:52;;;;;;;1.25;0.90;;;10.30;99.90;11.50;97149.00;;;;4938119;28;82785;-59
2022/05/13 00:54:18;;;;;;;6.82;1.00;;;10.30;99.90;11.60;97174.00;;;;4961844;28;83787;-58
2022/05/13 00:56:48;;;;;;;1.58;0.70;;;10.30;99.90;11.70;97174.00;;;;4959725;28;84972;-58
2022/05/13 00:59:18;;;;;;;2.28;1.00;;;10.30;99.90;11.90;97172.00;;;;4984211;28;83394;-59
2022/05/13 01:01:44;;;;;;;2.08;1.10;;;10.30;99.90;11.90;97168.00;;;;4967637;28;82298;-59
2022/05/13 01:04:14;;;;;;;4.03;1.10;;;10.40;99.90;11.90;97180.00;;;;4984552;28;82193;-59
2022/05/13 01:06:46;;;;;;;4.72;1.20;;;10.40;99.90;12.00;97170.00;;;;4967356;28;83326;-57
2022/05/13 01:09:12;;;;;;;2.42;1.00;;;10.40;99.90;11.90;97184.00;;;;4970308;28;82255;-54
2022/05/13 01:11:40;;;;;;;1.65;0.80;;;10.30;99.90;11.80;97169.00;;;;4950519;28;82811;-58
2022/05/13 01:14:23;;;;;;;2.63;1.23;;;10.30;99.90;11.90;97178.00;;;;4983858;28;82319;-58
2022/05/13 01:19:34;;;;;;;2.70;0.80;;;10.20;99.90;11.70;97190.00;;;;4981828;28;82056;-60
2022/05/13 01:22:16;;;;;;;1.38;0.80;;;10.20;99.90;11.60;97184.00;;;;4984655;28;81846;-55
2022/05/13 01:24:43;;;;;;;3.20;1.00;;;10.20;99.90;11.70;97180.00;;;;4980855;28;82905;-57
2022/05/13 01:27:09;;;;;;;1.67;1.25;;;10.20;99.90;11.70;97199.00;;;;4983318;28;83129;-54
2022/05/13 01:29:35;;;;;;;1.35;0.80;;;10.20;99.90;11.60;97185.00;;;;4984818;28;82188;-56
2022/05/13 01:32:02;;;;;;;3.97;0.88;;;10.10;99.90;11.50;97184.00;;;;4984759;28;81837;-59
2022/05/13 01:34:28;;;;;;;5.97;0.95;;;10.10;99.90;11.30;97186.00;;;;4984375;28;82217;-59
2022/05/13 01:36:55;;;;;;;1.90;0.88;;;10.10;99.90;11.40;97183.00;;;;4983654;28;83759;-56
2022/05/13 01:39:21;;;;;;;2.25;0.70;;;10.10;99.90;11.50;97187.00;;;;4984534;28;82245;-59
2022/05/13 01:41:47;;;;;;;3.25;1.30;;;10.10;99.90;11.60;97188.00;;;;4985047;28;82113;-58
2022/05/13 01:44:14;;;;;;;2.60;0.95;;;10.10;99.90;11.70;97190.00;;;;4966431;28;83550;-60
2022/05/13 01:46:40;;;;;;;1.65;0.80;;;10.10;99.90;11.60;97182.00;;;;4984256;28;82675;-59
2022/05/13 01:49:06;;;;;;;3.70;1.00;;;10.10;99.90;11.50;97190.00;;;;4983064;28;82866;-59
2022/05/13 01:51:32;;;;;;;3.40;0.98;;;10.10;99.90;11.70;97204.00;;;;4970229;28;82280;-59
2022/05/13 01:53:58;;;;;;;2.20;0.90;;;10.10;99.90;11.70;97195.00;;;;4964948;28;83170;-60
2022/05/13 01:56:24;;;;;;;2.45;0.80;;;10.10;99.90;11.70;97186.00;;;;4964433;28;82656;-55
2022/05/13 01:58:50;;;;;;;3.97;1.00;;;10.10;99.90;11.70;97180.00;;;;4966385;28;82329;-53
2022/05/13 02:01:16;;;;;;;1.35;0.80;;;10.10;99.90;11.40;97219.00;;;;4964594;28;82441;-56
2022/05/13 02:03:45;;;;;;;1.40;0.88;;;10.10;99.90;11.50;97199.00;;;;4964135;28;82079;-58
2022/05/13 02:06:20;;;;;;;2.60;0.80;;;10.10;99.90;11.50;97201.00;;;;4964421;28;82146;-59
2022/05/13 02:08:48;;;;;;;5.15;1.10;;;10.00;99.90;11.50;97199.00;;;;4964299;28;82462;-59
2022/05/13 02:11:14;;;;;;;2.90;1.02;;;10.00;99.90;11.40;97207.00;;;;4964313;28;81883;-59
2022/05/13 02:13:41;;;;;;;5.88;0.93;;;10.00;99.90;11.50;97217.00;;;;4963105;28;83803;-59
2022/05/13 02:16:08;;;;;;;2.30;0.90;;;10.00;99.90;11.30;97216.00;;;;4964191;28;82642;-58
2022/05/13 02:18:34;;;;;;;5.32;1.00;;;10.00;99.90;11.50;97212.00;;;;4964050;28;83261;-58
2022/05/13 02:21:01;;;;;;;3.03;1.00;;;10.00;99.90;11.50;97228.00;;;;4964304;28;81866;-55
2022/05/13 02:23:27;;;;;;;1.90;0.82;;;10.00;99.90;11.50;97217.00;;;;4963622;28;82350;-57
2022/05/13 02:26:00;;;;;;;4.07;0.90;;;10.00;99.90;11.40;97257.00;;;;4963726;28;82699;-58
2022/05/13 02:28:30;;;;;;;2.15;0.90;;;10.00;99.90;11.30;97240.00;;;;4963917;28;82243;-58
2022/05/13 02:30:57;;;;;;;2.08;1.08;;;10.00;99.90;11.50;97239.00;;;;4964737;28;81734;-58
2022/05/13 02:33:23;;;;;;;5.75;1.90;;;10.00;99.90;11.40;97234.00;;;;4954170;28;83412;-59
2022/05/13 02:35:49;;;;;;;5.07;1.30;;;10.00;99.90;11.40;97231.00;;;;4963871;28;83535;-58
2022/05/13 02:38:16;;;;;;;5.03;1.13;;;10.00;99.90;11.60;97233.00;;;;4963259;28;83448;-59
2022/05/13 02:43:29;;;;;;;3.47;1.13;;;10.10;99.90;11.80;97237.00;;;;4961258;28;82375;-53
2022/05/13 02:45:55;;;;;;;3.40;1.08;;;10.10;99.90;11.70;97242.00;;;;4963736;28;82850;-56
2022/05/13 02:48:21;;;;;;;5.00;0.90;;;10.10;99.90;11.50;97249.00;;;;4962459;28;83337;-55
2022/05/13 02:50:48;;;;;;;4.10;1.00;;;10.00;99.90;11.30;97254.00;;;;4970767;28;82403;-55
2022/05/13 02:53:14;;;;;;;2.78;1.10;;;9.90;99.90;11.40;97256.00;;;;4979263;28;82664;-58
2022/05/13 02:55:41;;;;;;;5.55;1.00;;;10.00;99.90;11.60;97259.00;;;;4983834;28;82174;-58
2022/05/13 02:58:07;;;;;;;6.43;1.00;;;10.00;99.90;11.70;97254.00;;;;4983285;28;81918;-59
2022/05/13 03:00:34;;;;;;;6.32;1.63;;;10.00;99.90;11.50;97268.00;;;;4991054;28;81939;-59
2022/05/13 03:03:00;;;;;;;6.00;1.42;;;10.00;99.90;11.70;97262.00;;;;4965536;28;83533;-61
2022/05/13 03:05:28;;;;;;;3.38;1.17;;;10.10;99.90;11.20;97264.00;;;;4983212;28;82618;-56
2022/05/13 03:07:57;;;;;;;3.45;1.25;;;10.00;99.90;11.20;97264.00;;;;4965087;28;83590;-58
2022/05/13 03:10:23;;;;;;;4.90;1.20;;;9.90;99.90;11.10;97264.00;;;;4983375;28;81900;-56
2022/05/13 03:12:49;;;;;;;4.15;1.20;;;9.90;99.90;11.30;97275.00;;;;4982804;28;83247;-59
2022/05/13 03:15:15;;;;;;;5.13;1.00;;;9.80;99.90;11.10;97271.00;;;;4965645;28;84909;-58
2022/05/13 03:17:42;;;;;;;2.97;1.20;;;9.80;99.90;11.30;97266.00;;;;4982929;28;82341;-58
2022/05/13 03:20:17;;;;;;;7.50;1.13;;;9.80;99.90;11.40;97263.00;;;;4971982;28;82644;-59
2022/05/13 03:22:44;;;;;;;3.08;1.10;;;9.90;99.90;11.60;97268.00;;;;4982923;28;82298;-59
2022/05/13 03:25:11;;;;;;;3.55;1.13;;;9.90;99.90;11.70;97262.00;;;;4981969;28;82570;-59
2022/05/13 03:27:40;;;;;;;4.55;1.00;;;10.10;99.90;11.60;97266.00;;;;4982138;28;82887;-58
2022/05/13 03:30:12;;;;;;;4.65;1.20;;;10.10;99.90;11.80;97269.00;;;;4981836;28;82515;-58
2022/05/13 03:32:38;;;;;;;2.95;1.33;;;10.10;99.90;11.90;97272.00;;;;4982531;28;84221;-56
2022/05/13 03:35:07;;;;;;;4.03;1.20;;;10.30;99.90;11.70;97274.00;;;;4982603;28;82727;-57
2022/05/13 03:37:33;;;;;;;6.95;1.50;;;10.20;99.90;12.00;97279.00;;;;4985792;28;82263;-56
2022/05/13 03:39:59;;;;;;;4.32;1.55;;;10.30;99.90;11.90;97296.00;;;;4986298;28;81788;-56
2022/05/13 03:42:26;;;;;;;4.10;1.17;;;10.30;99.90;11.80;97273.00;;;;4985682;28;82452;-55
2022/05/13 03:44:52;;;;;;;3.03;1.23;;;10.20;99.90;11.60;97288.00;;;;4986645;28;81965;-54
2022/05/13 03:47:19;;;;;;;3.10;1.38;;;10.20;99.90;11.70;97292.00;;;;4986193;28;82269;-59
2022/05/13 03:49:45;;;;;;;5.88;1.38;;;10.10;99.90;11.80;97277.00;;;;4984984;28;82446;-60
2022/05/13 03:52:12;;;;;;;3.30;1.25;;;10.10;99.90;11.70;97285.00;;;;4965623;28;82969;-60
2022/05/13 03:54:38;;;;;;;5.85;1.27;;;10.10;99.90;11.80;97276.00;;;;4966136;28;82643;-58
2022/05/13 03:57:08;;;;;;;1.38;0.90;;;10.10;99.90;12.00;97299.00;;;;4966190;28;82223;-57
2022/05/13 03:59:36;;;;;;;3.25;1.25;;;10.20;99.90;11.80;97285.00;;;;4964680;28;82664;-56
2022/05/13 04:02:04;;;;;;;7.95;1.20;;;10.20;99.90;12.00;97298.00;;;;4966027;28;82391;-56
2022/05/13 04:08:56;;;;;;;4.30;1.40;;;10.30;99.90;12.00;97295.00;;;;4965632;28;82692;-56
2022/05/13 04:10:04;;;;;;;5.00;0.98;;;10.40;99.90;11.90;97313.00;;;;4966656;28;81786;-57
2022/05/13 04:18:00;;;;;;;5.70;1.40;;;10.40;99.90;12.20;97309.00;;;;4965251;28;82971;-60
2022/05/13 04:20:27;;;;;;;7.75;2.28;;;10.60;99.90;11.80;97313.00;;;;4965977;28;81884;-58
2022/05/13 04:22:53;;;;;;;3.85;1.25;;;10.60;99.90;12.10;97303.00;;;;4965560;28;82432;-60
2022/05/13 04:25:19;;;;;;;4.10;1.27;;;10.60;99.90;12.30;97310.00;;;;4964485;28;82017;-58
2022/05/13 04:27:45;;;;;;;7.22;1.33;;;10.70;99.90;12.50;97320.00;;;;4965467;28;81975;-58
2022/05/13 04:30:13;;;;;;;4.07;1.30;;;10.80;99.90;12.40;97317.00;;;;4965563;28;82834;-57
2022/05/13 04:32:40;;;;;;;4.43;1.30;;;10.70;99.90;12.00;97329.00;;;;4965451;28;82087;-59
2022/05/13 04:35:07;;;;;;;4.80;1.42;;;10.70;99.90;12.30;97316.00;;;;4966015;28;81773;-60
2022/05/13 04:37:33;;;;;;;3.80;1.40;;;10.80;99.90;12.30;97310.00;;;;4962668;28;81976;-60
2022/05/13 04:39:59;;;;;;;4.43;1.38;;;10.70;99.90;12.20;97322.00;;;;4962594;28;82237;-59
2022/05/13 04:45:11;;;;;;;4.60;1.20;;;10.60;99.90;12.50;97316.00;;;;4962091;28;82829;-59
2022/05/13 04:50:22;;;;;;;10.75;1.77;;;11.00;99.90;12.40;97312.00;;;;4968518;28;81917;-58
2022/05/13 04:52:48;;;;;;;5.68;1.30;;;11.10;99.90;12.70;97307.00;;;;4968304;28;81982;-57
2022/05/13 04:55:14;;;;;;;4.97;1.73;;;11.20;99.90;13.00;97313.00;;;;4984237;28;82887;-60
2022/05/13 04:57:40;;;;;;;4.10;1.13;;;11.40;99.90;13.30;97312.00;;;;4984119;28;82547;-60
2022/05/13 05:00:08;;;;;;;4.18;1.05;;;11.60;99.90;13.40;97326.00;;;;4987617;28;82201;-60
2022/05/13 05:02:35;;;;;;;7.55;1.38;;;11.60;99.90;12.60;97325.00;;;;4984192;28;83302;-60
2022/05/13 05:05:01;;;;;;;4.53;1.30;;;11.20;99.90;12.50;97303.00;;;;4984371;28;82842;-60
2022/05/13 05:07:27;;;;;;;4.72;1.60;;;11.00;99.90;13.00;97321.00;;;;4984012;28;83209;-56
2022/05/13 05:09:53;;;;;;;3.25;1.15;;;11.40;99.90;13.50;97317.00;;;;4984119;28;82368;-59
2022/05/13 05:12:20;;;;;;;6.25;1.17;;;11.80;99.90;14.20;97316.00;;;;4984114;28;83174;-60
2022/05/13 05:14:46;;;;;;;3.55;1.30;;;12.30;99.90;13.70;97332.00;;;;4983839;28;82619;-60
2022/05/13 05:17:12;;;;;;;5.28;1.40;;;12.20;99.90;13.40;97332.00;;;;4984562;28;81910;-60
2022/05/13 05:19:39;;;;;;;4.90;1.25;;;12.10;99.90;14.00;97335.00;;;;4983914;28;81992;-59
2022/05/13 05:22:05;;;;;;;5.13;1.02;;;12.30;99.90;14.10;97326.00;;;;4984252;28;81964;-59
2022/05/13 05:24:32;;;;;;;5.03;1.20;;;12.40;99.90;14.00;97339.00;;;;4984141;28;81854;-59
2022/05/13 05:26:58;;;;;;;5.93;1.65;;;12.20;99.90;13.80;97326.00;;;;4984365;28;81909;-59
2022/05/13 05:29:24;;;;;;;9.20;2.33;;;12.30;99.90;13.90;97350.00;;;;4983667;28;83000;-58
2022/05/13 05:31:50;;;;;;;4.85;1.20;;;12.40;99.90;14.40;97341.00;;;;4983556;28;83175;-58
2022/05/13 05:34:18;;;;;;;5.70;1.50;;;12.50;99.90;13.80;97328.00;;;;4983535;28;82728;-59
2022/05/13 05:36:44;;;;;;;8.43;1.50;;;12.30;99.90;14.20;97348.00;;;;4983609;28;82629;-58
2022/05/13 05:39:10;;;;;;;4.65;1.15;;;12.40;99.90;14.80;97339.00;;;;4983834;28;81790;-59
2022/05/13 05:41:37;;;;;;;4.95;1.20;;;12.90;99.90;14.80;97329.00;;;;4983696;28;82855;-59
2022/05/13 05:44:04;;;;;;;5.07;0.90;;;13.00;99.90;14.90;97341.00;;;;4979726;28;81813;-57
2022/05/13 05:46:30;;;;;;;5.43;1.48;;;12.90;99.90;14.30;97344.00;;;;4984123;28;82337;-60
2022/05/13 05:48:56;;;;;;;5.10;1.30;;;12.60;99.90;14.10;97349.00;;;;4983175;28;81596;-60
2022/05/13 05:51:22;;;;;;;3.00;1.10;;;12.40;99.90;14.00;97349.00;;;;4980197;28;82316;-58
2022/05/13 05:59:18;;;;;;;3.83;1.05;;;13.50;99.90;15.30;97339.00;;;;4981966;28;82034;-59
2022/05/13 06:01:45;;;;;;;3.08;1.00;;;13.50;99.90;15.10;97350.00;;;;4983370;28;82421;-59
2022/05/13 06:04:12;;;;;;;8.07;1.40;;;13.30;99.90;14.90;97352.00;;;;4983344;28;83932;-59
2022/05/13 06:06:38;;;;;;;4.18;1.05;;;13.20;99.90;14.10;97350.00;;;;4983547;28;82419;-59
2022/05/13 06:09:04;;;;;;;8.15;1.20;;;12.80;99.90;14.90;97365.00;;;;4983099;28;82260;-59
2022/05/13 06:11:31;;;;;;;2.13;0.73;;;13.00;99.90;14.50;97377.00;;;;4985472;28;82324;-60
2022/05/13 06:13:58;;;;;;;3.58;1.02;;;12.90;99.90;14.00;97362.00;;;;4983651;28;84252;-58
2022/05/13 06:16:27;;;;;;;3.05;1.17;;;12.50;99.90;13.70;97377.00;;;;4983570;28;83571;-60
2022/05/13 06:18:54;;;;;;;2.00;0.75;;;12.30;99.90;13.70;97373.00;;;;4983589;28;81836;-58
2022/05/13 06:21:21;;;;;;;5.13;1.30;;;12.10;99.90;14.10;97350.00;;;;4982921;28;82958;-60
2022/05/13 06:23:47;;;;;;;6.97;1.23;;;12.50;99.90;14.50;97391.00;;;;4983421;28;82971;-59
2022/05/13 06:26:13;;;;;;;7.93;1.20;;;12.80;99.90;14.30;97365.00;;;;4983273;28;82362;-59
2022/05/13 06:28:40;;;;;;;6.38;1.40;;;12.70;99.90;14.40;97369.00;;;;4983473;28;82327;-59
2022/05/13 06:31:07;;;;;;;3.45;1.05;;;12.80;99.90;14.50;97384.00;;;;4965424;28;86339;-59
2022/05/13 06:33:34;;;;;;;6.53;1.20;;;12.80;99.90;14.30;97374.00;;;;4982744;28;82026;-60
2022/05/13 06:36:00;;;;;;;9.25;0.95;;;12.70;99.90;14.20;97374.00;;;;4982987;28;82561;-58
2022/05/13 06:38:26;;;;;;;4.15;1.05;;;12.80;99.90;14.60;97371.00;;;;4980029;28;81768;-59
2022/05/13 06:40:54;;;;;;;4.10;0.90;;;12.80;99.90;14.70;97377.00;;;;4983050;28;82277;-60
2022/05/13 06:43:22;;;;;;;3.88;1.27;;;12.90;99.90;14.40;97379.00;;;;4982937;28;82919;-59
2022/05/13 06:45:48;;;;;;;2.55;1.00;;;12.70;99.90;13.70;97393.00;;;;4982785;28;83259;-62
2022/05/13 06:48:15;;;;;;;7.22;1.15;;;12.40;99.90;14.10;97373.00;;;;4965730;28;82540;-59
2022/05/13 06:50:43;;;;;;;6.38;1.23;;;12.50;99.90;14.30;97368.00;;;;4981910;28;82163;-58
2022/05/13 06:53:11;;;;;;;4.18;0.90;;;12.60;99.90;13.90;97371.00;;;;4982214;28;82650;-60
2022/05/13 06:55:39;;;;;;;4.38;0.93;;;12.60;99.90;14.30;97385.00;;;;4962031;28;83012;-59
2022/05/13 06:58:06;;;;;;;4.47;1.10;;;12.80;99.90;14.60;97372.00;;;;4980901;28;82510;-60
2022/05/13 07:00:32;;;;;;;8.30;1.33;;;12.90;99.90;15.00;97380.00;;;;4983641;28;83694;-59
2022/05/13 07:02:59;;;;;;;7.18;1.25;;;13.30;99.90;15.10;97349.00;;;;4983170;28;82068;-60
2022/05/13 07:05:25;;;;;;;9.15;1.20;;;13.60;99.90;15.10;97364.00;;;;4983079;28;81881;-59
2022/05/13 07:07:51;;;;;;;5.05;1.42;;;13.40;99.90;15.10;97379.00;;;;4982098;28;82819;-59
2022/05/13 07:10:18;;;;;;;12.15;1.33;;;13.50;99.90;15.30;97389.00;;;;4983030;28;82950;-59
2022/05/13 07:12:44;;;;;;;9.93;2.22;;;13.50;99.90;15.50;97375.00;;;;4985848;28;84491;-60
2022/05/13 07:15:15;;;;;;;3.13;1.08;;;13.80;99.90;15.70;97362.00;;;;4986262;28;82682;-59
2022/05/13 07:17:42;;;;;;;;;;;13.90;99.90;15.30;97389.00;;;;4969211;28;82640;-59
2022/05/13 07:20:11;;;;;;;5.68;0.95;;;13.80;99.90;15.10;97391.00;;;;4986995;28;82549;-59
2022/05/13 07:22:37;;;;;;;3.45;0.93;;;13.60;99.90;15.20;97383.00;;;;4985175;28;82473;-60
2022/05/13 07:25:05;;;;;;;2.55;0.80;;;13.50;99.90;15.30;97374.00;;;;4969894;28;82442;-60
2022/05/13 07:27:32;;;;;;;4.07;1.20;;;13.50;99.90;15.80;97385.00;;;;4986688;28;81632;-59
2022/05/13 07:29:58;;;;;;;4.18;1.10;;;13.80;99.90;15.70;97383.00;;;;4985736;28;82335;-57
2022/05/13 07:32:24;;;;;;;4.90;1.20;;;14.00;99.90;15.00;97366.00;;;;4985598;28;81901;-60
2022/05/13 07:34:50;;;;;;;3.42;0.90;;;13.60;99.90;14.90;97389.00;;;;4985404;28;84067;-60
2022/05/13 07:37:17;;;;;;;3.67;0.85;;;13.60;99.90;15.30;97385.00;;;;4985098;28;82077;-59
2022/05/13 07:42:28;;;;;;;4.10;1.30;;;13.80;99.90;15.70;97392.00;;;;4982565;28;83597;-58
2022/05/13 07:44:54;;;;;;;6.53;1.10;;;14.00;99.90;15.40;97390.00;;;;4986077;28;83613;-60
2022/05/13 07:47:20;;;;;;;3.45;0.80;;;13.90;99.90;15.30;97391.00;;;;4985697;28;82437;-60
2022/05/13 07:49:47;;;;;;;3.65;0.82;;;13.70;99.90;15.20;97398.00;;;;4985296;28;82586;-58
2022/05/13 07:52:13;;;;;;;4.60;0.77;;;13.60;99.90;15.40;97383.00;;;;4985158;28;81985;-59
2022/05/13 07:54:41;;;;;;;4.75;0.85;;;13.70;99.90;15.20;97394.00;;;;4986655;28;81802;-59
2022/05/13 07:57:08;;;;;;;6.15;0.90;;;13.60;99.90;15.10;97395.00;;;;4985670;28;82736;-55
2022/05/13 08:00:24;;;;;;;2.95;0.80;;;13.70;99.90;15.20;97402.00;;;;4986662;28;82998;-58
2022/05/13 08:02:20;;;;;;;3.60;0.90;;;13.60;99.90;15.70;97372.00;;;;4983308;28;82885;-59
2022/05/13 08:04:46;;;;;;;4.63;0.90;;;14.10;99.90;16.10;97381.00;;;;4985349;28;82741;-59
2022/05/13 08:07:12;;;;;;;2.15;0.75;;;14.40;99.90;16.30;97377.00;;;;4985131;28;82349;-59
2022/05/13 08:09:39;;;;;;;3.03;0.80;;;14.50;99.90;16.30;97384.00;;;;4985209;28;82439;-57
2022/05/13 08:12:06;;;;;;;4.25;0.80;;;14.50;99.90;15.90;97374.00;;;;4986380;28;85050;-57
2022/05/13 08:14:32;;;;;;;2.40;1.00;;;14.20;99.90;15.90;97377.00;;;;4985245;28;82281;-58
2022/05/13 08:16:58;;;;;;;2.78;0.60;;;14.30;99.90;16.10;97382.00;;;;4982624;28;82608;-57
2022/05/13 08:19:25;;;;;;;3.28;0.73;;;14.40;99.90;16.30;97359.00;;;;4984288;28;82376;-57
2022/05/13 08:21:51;;;;;;;3.95;1.05;;;14.60;99.90;16.70;97373.00;;;;4982629;28;82782;-58
2022/05/13 08:24:17;;;;;;;8.20;0.93;;;14.90;99.90;16.80;97373.00;;;;4982624;28;83565;-58
2022/05/13 08:26:43;;;;;;;7.72;1.10;;;14.90;99.90;17.00;97375.00;;;;4985353;28;81931;-58
2022/05/13 08:29:10;;;;;;;3.30;0.80;;;15.10;99.90;16.80;97382.00;;;;4984917;28;82313;-58
2022/05/13 08:31:36;;;;;;;2.40;0.73;;;15.20;99.90;16.90;97367.00;;;;4985319;28;82624;-59
2022/05/13 08:34:02;;;;;;;6.07;0.70;;;15.10;99.90;16.90;97380.00;;;;4984985;28;82460;-59
2022/05/13 08:36:29;;;;;;;6.18;1.00;;;15.10;99.90;16.90;97387.00;;;;4984754;28;82238;-58
2022/05/13 08:38:55;;;;;;;7.30;1.10;;;15.20;99.90;16.90;97382.00;;;;4984801;28;82305;-58
2022/05/13 08:41:42;;;;;;;2.88;0.80;;;15.10;99.90;16.30;97394.00;;;;4985252;28;82014;-57
2022/05/13 08:44:12;;;;;;;2.25;0.60;;;14.90;99.90;16.60;97401.00;;;;4982836;28;82307;-59
2022/05/13 08:46:57;;;;;;;5.75;1.02;;;14.70;99.90;16.70;97392.00;;;;4975460;28;82038;-59
2022/05/13 08:50:15;;;;;;;3.95;0.80;;;14.70;99.90;16.10;97383.00;;;;4983031;28;83433;-59
2022/05/13 08:53:11;;;;;;;6.60;1.10;;;14.50;99.90;16.70;97390.00;;;;4886625;28;82251;-59
2022/05/13 08:55:45;;;;;;;5.35;1.00;;;14.80;99.90;16.80;97389.00;;;;4960825;28;82659;-59
2022/05/13 08:58:48;;;;;;;4.20;0.88;;;15.10;99.90;16.50;97382.00;;;;4955602;28;81915;-59
2022/05/13 09:01:32;;;;;;;4.68;0.75;;;14.70;99.90;16.60;97397.00;;;;4959454;28;82640;-59
2022/05/13 09:04:10;;;;;;;6.80;1.10;;;14.80;99.90;16.90;97398.00;;;;4964697;28;82839;-59
2022/05/13 09:06:49;;;;;;;3.60;0.80;;;15.10;99.90;17.00;97395.00;;;;4964254;28;82436;-58
2022/05/13 09:09:16;;;;;;;8.35;0.77;;;15.20;99.90;16.60;97392.00;;;;4955598;28;81952;-58
2022/05/13 09:11:48;;;;;;;4.47;0.70;;;14.90;99.90;17.00;97397.00;;;;4963976;28;82486;-59
2022/05/13 09:14:43;;;;;;;3.35;0.88;;;15.10;99.90;17.40;97389.00;;;;4964920;28;82661;-60
2022/05/13 09:17:39;;;;;;;3.90;0.80;;;15.40;99.90;17.30;97400.00;;;;4961389;28;82950;-57
2022/05/13 09:20:15;;;;;;;4.85;1.02;;;15.40;99.90;16.80;97416.00;;;;4961835;28;82015;-58
2022/05/13 09:22:58;;;;;;;3.58;0.80;;;15.20;99.90;16.60;97411.00;;;;4941423;28;83657;-58
2022/05/13 09:25:56;;;;;;;4.10;1.20;;;15.00;99.90;17.10;97394.00;;;;4959931;28;82626;-57
2022/05/13 09:28:22;;;;;;;1.63;0.80;;;15.30;99.90;17.30;97404.00;;;;4933802;28;83515;-58
2022/05/13 09:30:55;;;;;;;5.55;0.90;;;15.40;99.90;17.40;97395.00;;;;4963650;28;81998;-59
2022/05/13 09:33:30;;;;;;;3.47;0.90;;;15.60;99.90;17.80;97385.00;;;;4961393;28;82249;-59
2022/05/13 09:36:04;;;;;;;2.63;0.73;;;15.80;99.90;17.50;97398.00;;;;4961675;28;82260;-59
2022/05/13 09:38:45;;;;;;;7.68;0.90;;;15.90;99.90;16.90;97404.00;;;;4961664;28;82595;-59
2022/05/13 09:41:14;;;;;;;2.25;0.77;;;15.50;99.90;17.20;97406.00;;;;4961878;28;82799;-58
2022/05/13 09:43:44;;;;;;;3.80;0.80;;;15.40;99.90;17.30;97432.00;;;;4935687;28;83747;-58
2022/05/13 09:46:33;;;;;;;3.95;0.90;;;15.40;99.90;17.30;97400.00;;;;4953023;28;82460;-59
2022/05/13 09:49:18;;;;;;;1.90;0.60;;;15.40;99.90;17.60;97403.00;;;;4960614;28;82469;-58
2022/05/13 09:52:13;;;;;;;5.80;1.20;;;15.60;99.90;17.40;97424.00;;;;4961163;28;82433;-59
2022/05/13 09:54:47;;;;;;;7.22;0.95;;;15.60;99.90;17.60;97417.00;;;;4954498;28;82409;-58
2022/05/13 09:57:31;;;;;;;3.60;0.90;;;15.60;99.90;17.40;97395.00;;;;4984174;28;82232;-59
2022/05/13 10:00:05;;;;;;;4.03;1.05;;;15.50;99.90;17.40;97411.00;;;;4982970;28;82471;-59
2022/05/13 10:02:42;;;;;;;3.30;0.82;;;15.60;99.90;17.30;97417.00;;;;4983578;28;81735;-59
2022/05/13 10:05:21;;;;;;;5.38;1.05;;;15.60;99.90;17.70;97412.00;;;;4983642;28;82451;-56
2022/05/13 10:07:49;;;;;;;4.72;1.00;;;15.80;99.90;17.90;97404.00;;;;4981327;28;82812;-60
2022/05/13 10:16:22;;;;;;;2.63;0.75;;;15.50;99.90;17.20;97425.00;;;;4979811;28;82073;-60
2022/05/13 10:19:00;;;;;;;4.18;0.95;;;15.60;99.90;17.00;97414.00;;;;4974525;28;82929;-58
2022/05/13 10:21:33;;;;;;;1.83;0.65;;;15.40;99.90;17.40;97416.00;;;;4983374;28;84347;-58
2022/05/13 10:24:27;;;;;;;3.90;0.75;;;15.50;99.90;17.50;97417.00;;;;4974345;28;81885;-59
2022/05/13 10:26:57;;;;;;;22.35;1.35;;;15.70;99.90;17.70;97428.00;;;;4983626;28;82338;-60
2022/05/13 10:29:42;;;;;;;5.90;1.58;;;15.80;99.90;17.40;97432.00;;;;4972087;28;82027;-59
2022/05/13 10:32:43;;;;;;;4.15;0.93;;;15.60;99.90;17.10;97425.00;;;;4966136;28;81885;-57
2022/05/13 10:35:18;;;;;;;7.88;0.90;;;15.50;99.90;17.50;97408.00;;;;4982950;28;82151;-60
2022/05/13 10:38:15;;;;;;;4.05;1.05;;;15.80;99.90;17.40;97419.00;;;;4949578;28;83002;-59
2022/05/13 10:40:43;;;;;;;4.22;0.80;;;15.90;99.90;17.30;97427.00;;;;4975738;28;82924;-59
2022/05/13 10:43:44;;;;;;;3.78;0.90;;;15.70;99.90;17.20;97445.00;;;;4982909;28;82348;-59
2022/05/13 10:46:44;;;;;;;2.17;0.98;;;15.80;99.90;17.70;97420.00;;;;4973956;28;81857;-59
2022/05/13 10:49:13;;;;;;;1.98;0.57;;;15.90;99.90;17.70;97411.00;;;;4965710;28;82810;-59
2022/05/13 10:52:34;;;;;;;5.40;0.77;;;15.90;99.90;18.00;97396.00;;;;4969477;28;83322;-58
2022/05/13 10:55:35;;;;;;;3.50;1.10;;;16.20;99.90;17.90;97396.00;;;;4987046;28;82401;-58
2022/05/13 10:58:22;;;;;;;2.08;1.05;;;16.00;99.90;17.90;97408.00;;;;4980404;28;81826;-57
2022/05/13 11:01:13;;;;;;;1.92;0.75;;;16.20;99.90;18.20;97412.00;;;;4984621;28;81824;-55
2022/05/13 11:04:01;;;;;;;3.00;0.70;;;16.40;99.90;17.70;97412.00;;;;4982866;28;84915;-57
2022/05/13 11:06:50;;;;;;;4.55;0.80;;;16.00;99.90;18.10;97411.00;;;;4984748;28;82981;-57
2022/05/13 11:09:25;;;;;;;7.63;1.13;;;16.10;99.90;18.00;97417.00;;;;4973440;28;81985;-54
2022/05/13 11:12:19;;;;;;;6.47;1.13;;;16.00;99.90;17.90;97417.00;;;;4985866;28;84758;-55
2022/05/13 11:15:32;;;;;;;5.15;1.13;;;16.10;99.90;17.20;97419.00;;;;4978274;28;83428;-56
2022/05/13 11:18:19;;;;;;;11.00;1.10;;;15.80;99.90;17.30;97422.00;;;;4967589;28;82230;-57
2022/05/13 11:21:10;;;;;;;4.65;0.75;;;15.40;99.90;17.00;97422.00;;;;4986055;28;82695;-58
2022/05/13 11:27:30;;;;;;;5.78;0.82;;;15.10;99.90;17.00;97421.00;;;;4986656;28;81995;-53
2022/05/13 11:30:10;;;;;;;2.13;0.77;;;15.10;99.90;16.90;97419.00;;;;4979812;28;83839;-58
2022/05/13 11:33:02;;;;;;;3.72;0.88;;;15.10;99.90;17.10;97414.00;;;;4986163;28;82003;-58
2022/05/13 11:36:14;;;;;;;3.88;0.70;;;15.20;99.90;17.10;97397.00;;;;4967459;28;83371;-59
2022/05/13 11:39:06;;;;;;;2.75;0.93;;;15.20;99.90;17.20;97405.00;;;;4985811;28;82705;-55
2022/05/13 11:42:05;;;;;;;3.53;1.52;;;15.30;99.90;17.40;97402.00;;;;4986111;28;82315;-55
2022/05/13 11:44:55;;;;;;;4.30;0.80;;;15.60;99.90;17.50;97405.00;;;;4983772;28;82442;-57
2022/05/13 11:47:36;;;;;;;2.92;0.70;;;15.70;99.90;17.80;97414.00;;;;4981653;28;82980;-53
2022/05/13 11:50:04;;;;;;;2.00;0.63;;;15.80;99.90;17.40;97392.00;;;;4980112;28;82731;-56
2022/05/13 11:52:40;;;;;;;4.65;1.10;;;15.80;99.90;17.70;97400.00;;;;4946486;28;82551;-58
2022/05/13 11:55:22;;;;;;;5.25;0.90;;;15.90;99.90;17.90;97390.00;;;;4961586;28;82383;-56